Time;durP1;ratioP1;P1;durP2;ratioP2;P2;SDS_P1;SDS_P2;PMS_P1;PMS_P2;Temp;Humidity;BMP_temperature;BMP_pressure;BME280_temperature;BME280_humidity;BME280_pressure;Samples;Min_cycle;Max_cycle;Signal;HPM_P1;HPM_P2
2022/12/11 00:00:24;;;;;;;4.45;4.07;;;;;;;;;;4929173;29;20067;-72
2022/12/11 00:02:51;;;;;;;8.50;4.65;;;;;;;;;;4929061;29;20032;-73
2022/12/11 00:05:17;;;;;;;8.18;3.13;;;;;;;;;;4960168;28;20028;-73
2022/12/11 00:07:43;;;;;;;6.32;2.97;;;;;;;;;;4929090;29;20031;-73
2022/12/11 00:10:09;;;;;;;8.40;4.53;;;;;;;;;;4929657;29;20890;-73
2022/12/11 00:12:35;;;;;;;6.47;2.97;;;;;;;;;;4931393;29;20464;-73
2022/12/11 00:15:00;;;;;;;6.15;3.60;;;-0.70;99.90;;;;;;4932520;29;20055;-73
2022/12/11 00:17:26;;;;;;;9.98;4.95;;;;;;;;;;4932436;29;20391;-73
2022/12/11 00:19:52;;;;;;;9.50;6.07;;;;;;;;;;4932870;29;20106;-73
2022/12/11 00:22:18;;;;;;;16.00;6.25;;;;;;;;;;4932220;29;20030;-73
2022/12/11 00:24:44;;;;;;;7.75;4.80;;;;;;;;;;4933143;29;20035;-73
2022/12/11 00:27:10;;;;;;;7.57;4.63;;;;;;;;;;4932294;29;20609;-73
2022/12/11 00:29:36;;;;;;;12.88;4.63;;;;;;;;;;4932698;29;20023;-73
2022/12/11 00:32:02;;;;;;;4.60;3.15;;;;;;;;;;4932382;29;20036;-73
2022/12/11 00:34:28;;;;;;;7.70;5.25;;;-0.50;99.90;;;;;;4932496;29;20074;-73
2022/12/11 00:36:54;;;;;;;8.15;6.10;;;;;;;;;;4932624;29;20040;-73
2022/12/11 00:39:20;;;;;;;9.30;4.43;;;;;;;;;;4963208;28;20378;-73
2022/12/11 00:41:46;;;;;;;11.68;5.85;;;;;;;;;;4962852;28;20051;-73
2022/12/11 00:44:12;;;;;;;8.27;3.63;;;;;;;;;;4932295;29;20036;-73
2022/12/11 00:46:38;;;;;;;9.93;3.85;;;;;;;;;;4932601;29;20698;-73
2022/12/11 00:49:04;;;;;;;8.82;4.38;;;;;;;;;;4932346;29;20086;-72
2022/12/11 00:51:30;;;;;;;6.32;4.18;;;;;;;;;;4931953;29;20032;-73
2022/12/11 00:53:56;;;;;;;11.45;3.97;;;-0.20;99.90;;;;;;4931893;29;20836;-73
2022/12/11 00:56:22;;;;;;;6.40;3.30;;;;;;;;;;4931991;29;20031;-73
2022/12/11 00:58:48;;;;;;;12.55;5.10;;;-0.70;99.90;;;;;;4932167;29;20039;-73
2022/12/11 01:01:20;;;;;;;8.57;6.18;;;-0.70;99.90;;;;;;4932068;29;20586;-73
2022/12/11 01:03:46;;;;;;;5.05;3.65;;;;;;;;;;4932149;29;20027;-73
2022/12/11 01:06:17;;;;;;;12.20;4.55;;;-0.70;99.90;;;;;;4930142;29;20378;-73
2022/12/11 01:08:43;;;;;;;8.95;5.90;;;-0.70;99.90;;;;;;4932015;29;20095;-73
2022/12/11 01:11:11;;;;;;;8.88;4.50;;;-0.70;99.90;;;;;;4931656;29;20055;-73
2022/12/11 01:13:38;;;;;;;10.15;5.05;;;-0.70;99.90;;;;;;4931398;29;20042;-72
2022/12/11 01:16:12;;;;;;;7.88;4.90;;;-0.80;99.90;;;;;;4931700;29;20151;-73
2022/12/11 01:18:38;;;;;;;7.93;5.75;;;;;;;;;;4931963;29;20044;-73
2022/12/11 01:21:12;;;;;;;5.68;4.38;;;-0.90;99.90;;;;;;4931464;29;20039;-73
2022/12/11 01:23:38;;;;;;;14.00;3.58;;;-1.10;99.90;;;;;;4930030;29;20043;-73
2022/12/11 01:26:09;;;;;;;7.28;5.22;;;-1.00;99.90;;;;;;4931739;29;20016;-73
2022/12/11 01:28:35;;;;;;;9.35;4.70;;;-1.10;99.90;;;;;;4931351;29;20496;-73
2022/12/11 01:31:01;;;;;;;4.80;3.22;;;;;;;;;;4930977;29;20038;-73
2022/12/11 01:33:27;;;;;;;4.05;2.92;;;;;;;;;;4931361;29;20043;-73
2022/12/11 01:35:53;;;;;;;7.53;5.60;;;-0.80;99.90;;;;;;4961958;28;20115;-72
2022/12/11 01:38:19;;;;;;;6.20;4.72;;;;;;;;;;4931113;29;20543;-73
2022/12/11 01:40:46;;;;;;;5.53;3.00;;;-0.60;99.90;;;;;;4931638;29;20035;-73
2022/12/11 01:43:12;;;;;;;8.52;3.65;;;;;;;;;;4931738;29;20035;-72
2022/12/11 01:45:43;;;;;;;12.23;5.30;;;-1.00;99.90;;;;;;4930454;29;20106;-73
2022/12/11 01:48:14;;;;;;;13.65;5.50;;;-0.90;99.90;;;;;;4931260;29;20409;-73
2022/12/11 01:50:46;;;;;;;7.47;4.30;;;-0.90;99.90;;;;;;4931259;29;20047;-73
2022/12/11 01:53:38;;;;;;;10.10;4.20;;;-1.00;99.90;;;;;;4930978;29;20027;-73
2022/12/11 01:56:04;;;;;;;10.13;5.25;;;;;;;;;;4928112;28;20540;-73
2022/12/11 01:58:33;;;;;;;7.85;5.05;;;-1.10;99.90;;;;;;4930861;29;20078;-73
2022/12/11 02:01:00;;;;;;;10.27;4.22;;;;;;;;;;4930945;29;20757;-73
2022/12/11 02:03:26;;;;;;;9.90;4.82;;;;;;;;;;4930990;29;20023;-72
2022/12/11 02:05:52;;;;;;;5.80;3.08;;;;;;;;;;4930944;29;20518;-73
2022/12/11 02:08:18;;;;;;;9.55;4.80;;;-0.90;99.90;;;;;;4930888;29;20024;-73
2022/12/11 02:11:03;;;;;;;8.68;4.13;;;-0.90;99.90;;;;;;4931094;29;20144;-73
2022/12/11 02:13:55;;;;;;;8.50;6.18;;;-0.90;99.90;;;;;;4930716;29;20497;-73
2022/12/11 02:16:33;;;;;;;5.72;3.63;;;-0.90;99.90;;;;;;4930886;29;20078;-73
2022/12/11 02:19:01;;;;;;;6.30;5.00;;;-0.80;99.90;;;;;;4930584;29;20034;-73
2022/12/11 02:21:46;;;;;;;4.93;2.58;;;-1.10;99.90;;;;;;4930924;29;20038;-73
2022/12/11 02:24:40;;;;;;;10.05;3.95;;;-0.80;99.90;;;;;;4930398;29;20098;-73
2022/12/11 02:27:13;;;;;;;6.00;3.78;;;-1.30;99.90;;;;;;4930309;29;20087;-73
2022/12/11 02:30:02;;;;;;;8.65;3.88;;;-0.80;99.90;;;;;;4930529;29;20028;-73
2022/12/11 02:32:34;;;;;;;5.35;2.78;;;-0.90;99.90;;;;;;4930106;29;20523;-73
2022/12/11 02:35:09;;;;;;;5.75;3.15;;;-1.00;99.90;;;;;;4929780;29;20024;-73
2022/12/11 02:37:37;;;;;;;6.00;3.13;;;-0.90;99.90;;;;;;4930322;29;20051;-73
2022/12/11 02:40:07;;;;;;;9.10;5.00;;;-0.90;99.90;;;;;;4928751;29;20027;-73
2022/12/11 02:42:34;;;;;;;6.82;3.90;;;-0.90;99.90;;;;;;4930209;29;20042;-73
2022/12/11 02:45:02;;;;;;;5.55;4.68;;;-0.80;99.90;;;;;;4929518;29;20047;-73
2022/12/11 02:47:30;;;;;;;7.82;5.05;;;-0.80;99.90;;;;;;4929847;29;20498;-73
2022/12/11 02:49:59;;;;;;;7.25;3.45;;;-0.80;99.90;;;;;;4928589;29;20024;-73
2022/12/11 02:52:26;;;;;;;7.18;3.92;;;-0.90;99.90;;;;;;4930085;29;20027;-72
2022/12/11 02:54:56;;;;;;;8.40;5.07;;;-0.90;99.90;;;;;;4929955;29;20429;-73
2022/12/11 02:57:38;;;;;;;3.13;2.83;;;-0.80;99.90;;;;;;4930162;29;20082;-73
2022/12/11 03:00:05;;;;;;;8.60;4.47;;;-0.80;99.90;;;;;;4930068;29;20027;-73
2022/12/11 03:02:31;;;;;;;6.80;5.13;;;0.10;99.90;;;;;;4929552;29;20036;-72
2022/12/11 03:04:57;;;;;;;7.80;4.05;;;;;;;;;;4929862;29;20028;-73
2022/12/11 03:07:31;;;;;;;7.13;3.95;;;-0.90;99.90;;;;;;4929625;29;20061;-73
2022/12/11 03:09:57;;;;;;;4.25;3.80;;;;;;;;;;4929888;29;20095;-72
2022/12/11 03:12:28;;;;;;;7.25;4.07;;;-0.60;99.90;;;;;;4929652;29;20162;-73
2022/12/11 03:14:55;;;;;;;10.18;4.28;;;-1.00;99.90;;;;;;4929056;29;20039;-73
2022/12/11 03:17:24;;;;;;;4.55;2.83;;;-1.00;99.90;;;;;;4929326;29;20032;-72
2022/12/11 03:20:12;;;;;;;8.88;3.45;;;-1.00;99.90;;;;;;4929891;29;20083;-73
2022/12/11 03:23:08;;;;;;;4.30;3.90;;;-1.00;99.90;;;;;;4929416;29;20035;-73
2022/12/11 03:25:52;;;;;;;7.82;4.28;;;-1.00;99.90;;;;;;4929359;29;20027;-72
2022/12/11 03:28:40;;;;;;;8.63;3.80;;;-1.00;99.90;;;;;;4929760;29;20509;-73
2022/12/11 03:31:10;;;;;;;13.23;3.85;;;-1.00;99.90;;;;;;4929176;28;20712;-73
2022/12/11 03:33:40;;;;;;;8.73;3.45;;;-0.70;99.90;;;;;;4929474;28;20036;-73
2022/12/11 03:36:17;;;;;;;5.32;2.53;;;-1.10;99.90;;;;;;4929697;29;20079;-73
2022/12/11 03:38:49;;;;;;;8.73;3.53;;;-1.10;99.90;;;;;;4929260;29;20450;-73
2022/12/11 03:41:18;;;;;;;3.40;2.47;;;-1.10;99.90;;;;;;4929169;29;20401;-73
2022/12/11 03:43:46;;;;;;;3.05;2.00;;;-1.20;99.90;;;;;;4927569;29;20280;-73
2022/12/11 03:46:14;;;;;;;7.97;3.70;;;-1.30;99.90;;;;;;4929119;29;20024;-72
2022/12/11 03:48:43;;;;;;;5.80;5.10;;;-1.30;99.90;;;;;;4933825;29;20023;-73
2022/12/11 03:51:09;;;;;;;6.93;4.10;;;-0.50;99.90;;;;;;4933525;29;20122;-73
2022/12/11 03:53:36;;;;;;;4.20;3.28;;;-0.70;99.90;;;;;;4933272;29;20158;-73
2022/12/11 03:56:07;;;;;;;6.10;3.70;;;-1.00;99.90;;;;;;4933740;29;20079;-73
2022/12/11 03:58:33;;;;;;;7.95;3.03;;;;;;;;;;4932991;29;20045;-73
2022/12/11 04:00:59;;;;;;;7.07;3.60;;;;;;;;;;4933001;29;20020;-73
2022/12/11 04:03:25;;;;;;;6.97;3.63;;;;;;;;;;4933209;29;20031;-73
2022/12/11 04:05:53;;;;;;;7.20;4.35;;;-0.60;99.90;;;;;;4933196;29;20028;-73
2022/12/11 04:08:20;;;;;;;9.80;4.25;;;-1.00;99.90;;;;;;4932895;29;20493;-73
2022/12/11 04:10:47;;;;;;;17.42;3.50;;;;;;;;;;4933105;29;20028;-73
2022/12/11 04:13:13;;;;;;;6.82;3.42;;;;;;;;;;4932909;29;20163;-73
2022/12/11 04:15:40;;;;;;;6.70;3.00;;;-1.30;99.90;;;;;;4932118;29;20027;-73
2022/12/11 04:26:24;;;;;;;10.45;3.83;;;;;;;;;;4922583;29;20030;-73
2022/12/11 04:28:50;;;;;;;4.30;2.92;;;;;;;;;;4932648;29;20032;-73
2022/12/11 04:31:19;;;;;;;7.57;4.18;;;-1.50;99.90;;;;;;4932893;29;20031;-73
2022/12/11 04:33:45;;;;;;;5.78;2.35;;;-1.50;99.90;;;;;;4932120;29;20032;-73
2022/12/11 04:36:11;;;;;;;6.72;3.85;;;-1.30;99.90;;;;;;4932765;29;20584;-73
2022/12/11 04:38:37;;;;;;;4.47;2.95;;;;;;;;;;4932434;29;20592;-73
2022/12/11 04:41:06;;;;;;;7.72;3.45;;;-1.50;99.90;;;;;;4932466;29;20042;-73
2022/12/11 04:43:32;;;;;;;6.97;3.75;;;;;;;;;;4931993;29;20091;-73
2022/12/11 04:46:10;;;;;;;6.90;2.88;;;-1.50;99.90;;;;;;4932584;29;20493;-74
2022/12/11 04:48:37;;;;;;;3.90;2.70;;;-1.50;99.90;;;;;;4932250;29;20024;-73
2022/12/11 04:51:04;;;;;;;6.15;3.13;;;-1.60;99.90;;;;;;4932018;29;20481;-73
2022/12/11 04:53:30;;;;;;;9.32;5.95;;;;;;;;;;4931995;29;20059;-73
2022/12/11 04:55:56;;;;;;;4.13;3.25;;;;;;;;;;4932209;29;20498;-73
2022/12/11 04:58:23;;;;;;;16.67;6.32;;;-3.20;99.90;;;;;;4931534;29;20040;-73
2022/12/11 05:00:49;;;;;;;13.10;4.28;;;;;;;;;;4932474;29;20107;-73
2022/12/11 05:03:15;;;;;;;5.32;3.20;;;-1.60;99.90;;;;;;4962662;28;20131;-73
2022/12/11 05:05:41;;;;;;;4.40;3.55;;;;;;;;;;4932045;29;20103;-73
2022/12/11 05:08:07;;;;;;;10.07;4.07;;;;;;;;;;4931659;29;20111;-73
2022/12/11 05:10:33;;;;;;;8.65;3.90;;;;;;;;;;4932139;29;20028;-73
2022/12/11 05:12:59;;;;;;;10.73;2.78;;;;;;;;;;4931637;29;20536;-73
2022/12/11 05:15:24;;;;;;;4.20;2.75;;;-1.30;99.90;;;;;;4931581;29;20031;-73
2022/12/11 05:17:50;;;;;;;5.97;3.50;;;-1.60;99.90;;;;;;4931856;29;20059;-72
2022/12/11 05:20:16;;;;;;;12.50;5.03;;;;;;;;;;4932080;29;20478;-73
2022/12/11 05:22:42;;;;;;;8.75;4.35;;;;;;;;;;4932030;29;20060;-73
2022/12/11 05:25:09;;;;;;;4.20;3.67;;;;;;;;;;4932075;29;20453;-72
2022/12/11 05:27:36;;;;;;;4.07;2.72;;;;;;;;;;4931565;29;20036;-73
2022/12/11 05:30:02;;;;;;;6.30;2.65;;;;;;;;;;4932125;29;20104;-73
2022/12/11 05:32:28;;;;;;;3.60;2.80;;;;;;;;;;4931486;29;20071;-73
2022/12/11 05:34:54;;;;;;;9.90;3.72;;;;;;;;;;4931483;29;20504;-73
2022/12/11 05:37:20;;;;;;;4.47;3.85;;;;;;;;;;4931441;29;20035;-73
2022/12/11 05:39:46;;;;;;;6.65;3.63;;;;;;;;;;4930786;29;20539;-73
2022/12/11 05:42:11;;;;;;;8.82;4.70;;;-2.40;99.90;;;;;;4930783;29;20028;-73
2022/12/11 05:44:37;;;;;;;5.35;3.83;;;;;;;;;;4930908;29;20048;-73
2022/12/11 05:47:03;;;;;;;5.90;2.33;;;-2.80;99.90;;;;;;4930884;29;20035;-73
2022/12/11 05:49:29;;;;;;;7.03;4.13;;;;;;;;;;4931176;29;20028;-73
2022/12/11 05:51:55;;;;;;;4.88;3.00;;;;;;;;;;4930961;29;20521;-72
2022/12/11 05:54:21;;;;;;;6.68;2.53;;;;;;;;;;4931061;29;20048;-73
2022/12/11 05:56:49;;;;;;;3.60;2.28;;;-3.10;99.90;;;;;;4930838;29;20122;-73
2022/12/11 05:59:15;;;;;;;3.53;3.03;;;-3.60;99.90;;;;;;4930944;29;20505;-73
2022/12/11 06:01:42;;;;;;;3.78;3.15;;;-3.30;99.90;;;;;;4930778;29;20035;-73
2022/12/11 06:04:09;;;;;;;4.97;4.00;;;-3.30;99.90;;;;;;4931478;29;20375;-72
2022/12/11 06:06:35;;;;;;;8.48;4.45;;;-3.30;99.90;;;;;;4930585;28;20057;-73
2022/12/11 06:09:02;;;;;;;5.70;3.88;;;-3.40;99.90;;;;;;4930578;29;20047;-73
2022/12/11 06:11:30;;;;;;;5.40;4.63;;;-3.60;99.90;;;;;;4930240;28;20106;-73
2022/12/11 06:13:56;;;;;;;10.75;3.58;;;;;;;;;;4929009;29;20035;-73
2022/12/11 06:16:22;;;;;;;6.80;4.78;;;;;;;;;;4930277;29;20092;-73
2022/12/11 06:18:48;;;;;;;3.35;1.33;;;;;;;;;;4930793;29;20457;-73
2022/12/11 06:21:18;;;;;;;3.63;2.55;;;-3.90;99.90;;;;;;4930507;29;20024;-73
2022/12/11 06:23:44;;;;;;;8.93;3.55;;;;;;;;;;4930253;29;20385;-73
2022/12/11 06:26:10;;;;;;;7.00;2.83;;;-4.00;99.90;;;;;;4930259;29;20015;-72
2022/12/11 06:28:36;;;;;;;3.88;2.90;;;;;;;;;;4930762;29;20386;-72
2022/12/11 06:31:03;;;;;;;3.80;2.75;;;-3.90;99.90;;;;;;4960987;28;20584;-73
2022/12/11 06:33:29;;;;;;;4.50;2.65;;;;;;;;;;4930322;29;20028;-73
2022/12/11 06:35:55;;;;;;;3.58;2.13;;;-4.00;99.90;;;;;;4918397;29;20035;-72
2022/12/11 06:38:21;;;;;;;6.00;3.20;;;-4.10;99.90;;;;;;4930353;29;20094;-73
2022/12/11 06:40:55;;;;;;;6.32;4.38;;;-4.10;99.90;;;;;;4930012;29;20063;-73
2022/12/11 06:43:21;;;;;;;2.17;1.85;;;;;;;;;;4930005;29;20024;-73
2022/12/11 06:45:47;;;;;;;3.03;2.83;;;;;;;;;;4960661;28;20503;-73
2022/12/11 06:48:13;;;;;;;7.72;4.60;;;;;;;;;;4929770;29;20083;-72
2022/12/11 06:50:39;;;;;;;6.32;3.38;;;-4.10;99.90;;;;;;4930680;29;20027;-73
2022/12/11 06:53:05;;;;;;;4.78;3.17;;;;;;;;;;4930055;29;20028;-73
2022/12/11 06:55:34;;;;;;;5.10;3.13;;;-4.10;99.90;;;;;;4892484;29;20179;-73
2022/12/11 06:58:00;;;;;;;6.22;3.63;;;;;;;;;;4891913;29;20075;-73
2022/12/11 07:00:27;;;;;;;10.25;2.45;;;-4.10;99.90;;;;;;4892284;29;20048;-73
2022/12/11 07:02:53;;;;;;;7.38;3.78;;;-4.00;99.90;;;;;;4891095;29;20561;-73
2022/12/11 07:05:18;;;;;;;4.85;2.72;;;-3.10;99.90;;;;;;4892202;29;20578;-73
2022/12/11 07:07:44;;;;;;;3.10;2.38;;;;;;;;;;4891941;29;20072;-73
2022/12/11 07:10:10;;;;;;;5.45;3.20;;;;;;;;;;4891896;29;20032;-72
2022/12/11 07:12:37;;;;;;;3.83;3.10;;;;;;;;;;4891921;29;20554;-72
2022/12/11 07:15:03;;;;;;;6.85;4.30;;;-3.50;99.90;;;;;;4891386;29;20573;-73
2022/12/11 07:17:29;;;;;;;10.05;5.90;;;;;;;;;;4892069;29;20044;-73
2022/12/11 07:19:55;;;;;;;14.55;5.18;;;;;;;;;;4892107;29;20533;-72
2022/12/11 07:22:22;;;;;;;3.80;3.45;;;;;;;;;;4891320;29;20028;-72
2022/12/11 07:24:48;;;;;;;7.05;5.10;;;;;;;;;;4892006;29;20035;-72
2022/12/11 07:27:14;;;;;;;13.05;5.70;;;;;;;;;;4921807;29;20033;-73
2022/12/11 07:29:40;;;;;;;10.13;2.75;;;;;;;;;;4891963;29;20077;-72
2022/12/11 07:32:06;;;;;;;8.38;6.00;;;;;;;;;;4891914;29;20579;-73
2022/12/11 07:34:32;;;;;;;15.05;4.50;;;;;;;;;;4891694;29;20024;-72
2022/12/11 07:36:58;;;;;;;14.93;3.83;;;;;;;;;;4891395;29;20048;-72
2022/12/11 07:39:24;;;;;;;7.00;3.47;;;;;;;;;;4891670;29;20407;-73
2022/12/11 07:41:50;;;;;;;15.07;5.03;;;;;;;;;;4891125;29;20028;-73
2022/12/11 07:44:16;;;;;;;10.13;6.22;;;;;;;;;;4891391;29;20028;-73
2022/12/11 07:46:41;;;;;;;14.63;7.53;;;-2.20;99.90;;;;;;4891938;29;20160;-73
2022/12/11 07:49:07;;;;;;;5.82;4.43;;;-2.20;99.90;;;;;;4890158;29;20115;-73
2022/12/11 07:51:35;;;;;;;10.65;6.40;;;-2.30;99.90;;;;;;4891196;29;20021;-73
2022/12/11 07:54:15;;;;;;;13.77;5.50;;;-2.30;99.90;;;;;;4906052;29;20625;-73
2022/12/11 07:56:42;;;;;;;14.43;5.57;;;-2.30;99.90;;;;;;4929195;29;20553;-72
2022/12/11 07:59:08;;;;;;;4.22;3.22;;;;;;;;;;4929452;29;20035;-72
2022/12/11 08:01:35;;;;;;;7.47;4.95;;;-1.90;99.90;;;;;;4929271;29;20117;-73
2022/12/11 08:04:02;;;;;;;20.83;6.28;;;-1.70;99.90;;;;;;4929565;29;20027;-72
2022/12/11 08:06:31;;;;;;;14.38;5.95;;;-1.20;99.90;;;;;;4928945;29;20028;-72
2022/12/11 08:08:59;;;;;;;45.33;10.70;;;-1.10;99.90;;;;;;4929481;29;20151;-73
2022/12/11 08:11:25;;;;;;;24.50;10.98;;;;;;;;;;4929227;29;20059;-73
2022/12/11 08:13:51;;;;;;;13.20;8.65;;;;;;;;;;4928991;29;20775;-73
2022/12/11 08:16:18;;;;;;;10.32;6.55;;;-0.90;99.90;;;;;;4929327;29;20024;-72
2022/12/11 08:18:45;;;;;;;11.23;6.30;;;-1.00;99.90;;;;;;4929343;29;20036;-73
2022/12/11 08:21:14;;;;;;;14.38;8.20;;;-0.10;99.90;;;;;;4929044;29;20055;-72
2022/12/11 08:23:40;;;;;;;19.45;11.85;;;;;;;;;;4929405;29;20038;-73
2022/12/11 08:26:07;;;;;;;13.70;7.57;;;0.20;99.90;;;;;;4929308;29;20144;-73
2022/12/11 08:28:34;;;;;;;15.98;7.53;;;;;;;;;;4929538;29;20621;-73
2022/12/11 08:31:00;;;;;;;28.13;12.77;;;;;;;;;;4928955;29;20031;-74
2022/12/11 08:33:26;;;;;;;29.35;11.48;;;;;;;;;;4929706;29;20035;-72
2022/12/11 08:35:52;;;;;;;20.20;7.65;;;;;;;;;;4932078;29;20042;-72
2022/12/11 08:38:18;;;;;;;22.10;8.93;;;;;;;;;;4932579;29;20043;-72
2022/12/11 08:40:44;;;;;;;20.83;9.82;;;;;;;;;;4932084;29;20031;-73
2022/12/11 08:43:10;;;;;;;18.83;8.48;;;;;;;;;;4932403;29;20042;-73
2022/12/11 08:45:36;;;;;;;18.55;8.00;;;;;;;;;;4932162;29;20024;-73
2022/12/11 08:48:02;;;;;;;13.60;6.68;;;;;;;;;;4932556;29;20034;-73
2022/12/11 08:50:28;;;;;;;14.55;7.78;;;;;;;;;;4931886;29;20098;-73
2022/12/11 08:52:53;;;;;;;15.35;7.28;;;8.60;73.80;;;;;;4932592;29;20042;-73
2022/12/11 08:55:20;;;;;;;16.75;7.70;;;6.50;61.70;;;;;;4931871;29;20525;-73
2022/12/11 08:57:46;;;;;;;9.10;5.43;;;;;;;;;;4932231;29;20567;-73
2022/12/11 09:00:14;;;;;;;18.98;7.47;;;4.20;74.70;;;;;;4932325;29;20075;-73
2022/12/11 09:02:40;;;;;;;17.15;8.23;;;;;;;;;;4932301;29;20048;-73
2022/12/11 09:05:08;;;;;;;16.13;7.72;;;6.30;78.60;;;;;;4932152;29;20103;-73
2022/12/11 09:07:34;;;;;;;14.02;8.68;;;;;;;;;;4932007;29;20126;-73
2022/12/11 09:10:00;;;;;;;31.33;11.07;;;;;;;;;;4932098;29;20063;-73
2022/12/11 09:12:27;;;;;;;21.73;10.82;;;6.50;66.50;;;;;;4932151;29;20390;-74
2022/12/11 09:14:53;;;;;;;15.70;8.23;;;;;;;;;;4931597;29;20123;-73
2022/12/11 09:17:19;;;;;;;13.80;6.03;;;;;;;;;;4931964;29;20260;-73
2022/12/11 09:19:45;;;;;;;11.75;6.80;;;;;;;;;;4931653;29;20486;-74
2022/12/11 09:22:11;;;;;;;12.85;6.18;;;;;;;;;;4931609;29;20032;-73
2022/12/11 09:24:37;;;;;;;7.60;4.78;;;;;;;;;;4931992;29;20564;-73
2022/12/11 09:27:04;;;;;;;20.63;7.53;;;7.70;64.00;;;;;;4931526;29;20036;-73
2022/12/11 09:29:30;;;;;;;14.50;7.67;;;;;;;;;;4931731;29;20036;-73
2022/12/11 09:31:56;;;;;;;11.15;6.10;;;11.60;77.40;;;;;;4962130;28;20354;-74
2022/12/11 09:34:22;;;;;;;10.80;6.15;;;;;;;;;;4931562;29;20115;-74
2022/12/11 09:36:48;;;;;;;9.65;6.63;;;;;;;;;;4931229;29;20410;-74
2022/12/11 09:39:15;;;;;;;9.48;6.68;;;19.90;42.50;;;;;;4931819;29;20036;-74
2022/12/11 09:41:54;;;;;;;11.35;5.93;;;19.80;53.50;;;;;;4931043;29;20020;-74
2022/12/11 09:44:40;;;;;;;27.60;9.70;;;15.50;44.50;;;;;;4930045;29;20076;-73
2022/12/11 09:47:26;;;;;;;15.73;7.60;;;11.80;59.60;;;;;;4931168;29;20481;-74
2022/12/11 09:50:31;;;;;;;15.05;7.45;;;10.80;54.00;;;;;;4931441;29;20035;-74
2022/12/11 09:53:17;;;;;;;11.98;6.20;;;8.10;54.80;;;;;;4931248;29;20063;-74
2022/12/11 09:55:58;;;;;;;12.07;5.85;;;6.30;55.20;;;;;;4931468;29;20052;-74
2022/12/11 09:58:35;;;;;;;12.75;6.38;;;5.60;58.30;;;;;;4931482;29;20110;-73
2022/12/11 10:01:19;;;;;;;15.27;7.25;;;4.80;67.00;;;;;;4931169;29;20042;-74
2022/12/11 10:04:16;;;;;;;13.65;6.05;;;4.60;59.00;;;;;;4931456;29;20031;-73
2022/12/11 10:06:55;;;;;;;9.88;4.95;;;4.80;60.80;;;;;;4931259;29;20772;-73
2022/12/11 10:09:46;;;;;;;12.05;6.65;;;5.70;61.40;;;;;;4930613;29;20046;-74
2022/12/11 10:12:24;;;;;;;11.50;5.05;;;6.40;56.40;;;;;;4928252;29;20138;-74
2022/12/11 10:15:08;;;;;;;11.50;5.75;;;7.20;55.20;;;;;;4927824;29;20075;-74
2022/12/11 10:17:37;;;;;;;11.05;6.70;;;8.40;55.70;;;;;;4927812;29;20358;-73
2022/12/11 10:20:21;;;;;;;9.35;4.88;;;9.40;60.70;;;;;;4928146;29;20067;-73
2022/12/11 10:22:49;;;;;;;11.82;5.80;;;8.00;54.00;;;;;;4927736;29;20039;-74
2022/12/11 10:25:21;;;;;;;6.95;4.85;;;9.80;56.50;;;;;;4928092;29;20035;-73
2022/12/11 10:27:47;;;;;;;9.65;5.10;;;;;;;;;;4927899;29;20102;-75
2022/12/11 10:30:23;;;;;;;8.95;6.72;;;16.00;46.00;;;;;;4927861;29;20036;-75
2022/12/11 10:32:56;;;;;;;12.05;6.55;;;18.40;43.10;;;;;;4927655;29;20115;-74
2022/12/11 10:35:44;;;;;;;9.85;4.78;;;18.70;39.90;;;;;;4927286;29;20059;-74
2022/12/11 10:38:18;;;;;;;9.45;6.10;;;17.60;38.70;;;;;;4927628;29;20038;-74
2022/12/11 10:40:50;;;;;;;11.50;6.20;;;18.50;39.00;;;;;;4927392;29;20551;-74
2022/12/11 10:43:16;;;;;;;7.60;5.18;;;17.80;47.10;;;;;;4927202;29;20413;-74
2022/12/11 10:45:54;;;;;;;12.23;5.50;;;15.30;41.80;;;;;;4926946;29;20032;-74
2022/12/11 10:48:20;;;;;;;;;;;15.20;41.70;;;;;;4927716;29;20123;-73
2022/12/11 10:51:02;;;;;;;7.45;4.70;;;10.00;47.80;;;;;;4928785;29;19907;-74
2022/12/11 10:53:29;;;;;;;7.35;4.35;;;8.50;57.70;;;;;;4929784;29;20055;-74
2022/12/11 10:55:57;;;;;;;11.00;5.65;;;7.30;50.30;;;;;;4929800;29;20090;-74
2022/12/11 10:58:25;;;;;;;10.18;4.45;;;6.30;54.00;;;;;;4929779;29;20059;-73
2022/12/11 11:01:14;;;;;;;9.70;4.93;;;5.40;54.40;;;;;;4929821;29;20086;-74
2022/12/11 11:04:14;;;;;;;8.32;4.68;;;5.60;63.80;;;;;;4926776;28;20545;-74
2022/12/11 11:06:40;;;;;;;18.55;4.25;;;;;;;;;;4928462;28;20067;-73
2022/12/11 11:09:30;;;;;;;9.85;4.20;;;4.10;56.80;;;;;;4929886;29;20816;-74
2022/12/11 11:11:56;;;;;;;11.18;4.97;;;;;;;;;;4930026;29;20485;-74
2022/12/11 11:14:22;;;;;;;5.93;4.10;;;;;;;;;;4929092;29;20058;-74
2022/12/11 11:16:50;;;;;;;6.88;4.30;;;2.70;63.40;;;;;;4929750;29;20040;-74
2022/12/11 11:19:34;;;;;;;8.95;5.20;;;2.70;61.80;;;;;;4929906;28;20038;-74
2022/12/11 11:22:04;;;;;;;13.98;6.22;;;3.10;61.60;;;;;;4929728;29;20024;-74
2022/12/11 11:24:44;;;;;;;8.27;4.75;;;3.70;69.10;;;;;;4929461;29;20669;-74
2022/12/11 11:27:24;;;;;;;10.40;4.80;;;5.30;58.10;;;;;;4929975;29;20031;-74
2022/12/11 11:30:00;;;;;;;8.15;4.13;;;5.30;56.20;;;;;;4929302;29;20584;-74
2022/12/11 11:32:37;;;;;;;11.23;6.63;;;4.50;56.60;;;;;;4929510;29;20036;-74
2022/12/11 11:35:12;;;;;;;9.98;4.35;;;3.90;58.00;;;;;;4929476;29;20479;-73
2022/12/11 11:37:40;;;;;;;8.00;4.22;;;3.70;60.50;;;;;;4929656;29;20039;-74
2022/12/11 11:40:24;;;;;;;5.88;3.78;;;3.80;59.20;;;;;;4929221;29;20024;-73
2022/12/11 11:43:09;;;;;;;10.13;4.60;;;4.10;59.00;;;;;;4960237;28;20035;-73
2022/12/11 11:45:56;;;;;;;9.32;4.80;;;3.60;58.80;;;;;;4929134;29;20429;-73
2022/12/11 11:48:36;;;;;;;8.82;3.75;;;3.70;59.40;;;;;;4929344;29;20620;-74
2022/12/11 11:51:14;;;;;;;10.30;4.85;;;3.50;59.70;;;;;;4929292;29;20066;-74
2022/12/11 11:53:40;;;;;;;8.60;4.53;;;;;;;;;;4929158;29;20118;-74
2022/12/11 11:56:20;;;;;;;6.82;4.00;;;3.10;61.30;;;;;;4929961;29;20047;-73
2022/12/11 11:59:19;;;;;;;6.05;3.85;;;3.00;61.60;;;;;;4929667;29;20054;-74
2022/12/11 12:01:44;;;;;;;11.35;4.57;;;3.30;66.40;;;;;;4929490;29;20032;-73
2022/12/11 12:04:10;;;;;;;12.35;4.82;;;3.40;61.60;;;;;;4929585;29;20646;-74
2022/12/11 12:06:58;;;;;;;12.38;4.57;;;4.50;62.30;;;;;;4929216;29;20023;-74
2022/12/11 12:09:35;;;;;;;13.48;5.35;;;6.30;59.10;;;;;;4932820;29;20060;-74
2022/12/11 12:12:01;;;;;;;9.05;4.38;;;;;;;;;;4933301;29;20409;-74
2022/12/11 12:14:54;;;;;;;7.90;4.30;;;8.10;61.70;;;;;;4932403;29;20034;-74
2022/12/11 12:17:30;;;;;;;7.68;4.03;;;8.00;60.00;;;;;;4932887;29;20040;-74
2022/12/11 12:20:14;;;;;;;8.90;3.58;;;7.60;52.90;;;;;;4933128;29;20027;-74
2022/12/11 12:22:40;;;;;;;10.30;4.15;;;;;;;;;;4932763;29;20059;-74
2022/12/11 12:25:24;;;;;;;15.05;5.72;;;6.50;55.60;;;;;;4932898;29;20490;-74
2022/12/11 12:27:50;;;;;;;8.95;4.60;;;;;;;;;;4921061;29;20055;-75
2022/12/11 12:30:17;;;;;;;5.65;4.18;;;5.90;56.30;;;;;;4932456;29;20059;-75
2022/12/11 12:32:43;;;;;;;9.88;5.22;;;;;;;;;;4932769;29;20453;-74
2022/12/11 12:35:24;;;;;;;8.88;4.55;;;5.10;57.10;;;;;;4932472;29;20035;-74
2022/12/11 12:38:16;;;;;;;14.93;5.22;;;4.60;64.00;;;;;;4932943;29;20051;-74
2022/12/11 12:41:20;;;;;;;8.32;5.18;;;5.70;58.80;;;;;;4932793;29;20054;-74
2022/12/11 12:43:52;;;;;;;9.90;5.82;;;5.90;56.70;;;;;;4930292;29;20024;-74
2022/12/11 12:46:47;;;;;;;13.98;6.03;;;6.10;56.20;;;;;;4932622;29;20052;-74
2022/12/11 12:49:41;;;;;;;8.05;4.53;;;6.50;70.60;;;;;;4963234;28;20126;-74
2022/12/11 12:52:18;;;;;;;9.82;5.43;;;7.00;55.90;;;;;;4932274;29;20031;-74
2022/12/11 12:55:12;;;;;;;7.75;5.35;;;6.60;55.40;;;;;;4932103;29;20063;-74
2022/12/11 12:57:36;;;;;;;8.55;4.13;;;5.90;57.00;;;;;;4932083;29;20048;-74
2022/12/11 13:00:02;;;;;;;7.63;4.18;;;5.20;61.30;;;;;;4932224;29;20042;-74
2022/12/11 13:02:29;;;;;;;7.55;4.65;;;5.20;70.40;;;;;;4932519;29;20402;-74
2022/12/11 13:05:02;;;;;;;8.20;4.25;;;5.40;58.50;;;;;;4932141;29;20028;-74
2022/12/11 13:07:30;;;;;;;9.18;5.15;;;5.40;59.70;;;;;;4932649;29;20420;-74
2022/12/11 13:10:03;;;;;;;10.45;4.28;;;5.10;58.40;;;;;;4932271;29;20385;-74
2022/12/11 13:12:47;;;;;;;9.98;4.50;;;5.40;58.40;;;;;;4932101;29;20070;-74
2022/12/11 13:15:48;;;;;;;5.95;4.22;;;5.70;70.50;;;;;;4931538;29;20031;-74
2022/12/11 13:18:38;;;;;;;6.80;3.83;;;5.50;60.00;;;;;;4930629;28;20044;-74
2022/12/11 13:21:28;;;;;;;8.88;4.70;;;5.70;57.50;;;;;;4931712;29;20028;-74
2022/12/11 13:23:54;;;;;;;7.07;4.40;;;;;;;;;;4931741;29;20020;-73
2022/12/11 13:26:28;;;;;;;19.50;7.15;;;5.10;58.00;;;;;;4931989;29;20050;-74
2022/12/11 13:28:54;;;;;;;11.27;5.70;;;;;;;;;;4931583;29;20122;-74
2022/12/11 13:31:21;;;;;;;8.55;4.95;;;;;;;;;;4962686;28;20595;-73
2022/12/11 13:33:56;;;;;;;7.65;3.97;;;5.40;58.20;;;;;;4931574;29;20027;-73
2022/12/11 13:36:34;;;;;;;11.32;4.60;;;5.30;58.40;;;;;;4931641;29;20035;-74
2022/12/11 13:39:14;;;;;;;11.00;4.60;;;5.40;58.60;;;;;;4930737;29;20810;-74
2022/12/11 13:41:44;;;;;;;10.05;4.60;;;5.30;58.80;;;;;;4931255;29;20066;-73
2022/12/11 13:44:18;;;;;;;14.02;5.43;;;5.30;59.00;;;;;;4931503;29;20023;-73
2022/12/11 13:46:44;;;;;;;8.30;4.85;;;;;;;;;;4931301;29;20031;-73
2022/12/11 13:49:21;;;;;;;9.10;4.40;;;5.20;59.50;;;;;;4931872;29;20039;-73
2022/12/11 13:51:53;;;;;;;8.60;3.88;;;5.20;59.50;;;;;;4931002;29;20070;-74
2022/12/11 13:54:19;;;;;;;10.82;4.93;;;;;;;;;;4931369;29;20051;-74